createdAt,value
2022-10-19T00:01:12.025Z,7.07
2022-10-19T00:03:40.021Z,6.95
2022-10-19T00:06:18.164Z,6.93
2022-10-19T00:08:46.542Z,7.35
2022-10-19T00:11:14.377Z,7.68
2022-10-19T00:13:42.352Z,10.02
2022-10-19T00:16:12.194Z,8.15
2022-10-19T00:18:40.535Z,7.20
2022-10-19T00:21:10.282Z,8.32
2022-10-19T00:23:40.013Z,8.23
2022-10-19T00:26:08.316Z,8.30
2022-10-19T00:28:36.803Z,8.52
2022-10-19T00:31:06.050Z,8.05
2022-10-19T00:33:33.995Z,8.07
2022-10-19T00:36:02.434Z,8.38
2022-10-19T00:38:30.537Z,9.05
2022-10-19T00:40:59.819Z,9.30
2022-10-19T00:43:32.532Z,8.45
2022-10-19T00:46:00.389Z,7.78
2022-10-19T00:48:32.760Z,9.27
2022-10-19T00:51:01.022Z,8.18
2022-10-19T00:53:31.826Z,8.50
2022-10-19T00:56:06.897Z,7.35
2022-10-19T00:58:35.174Z,8.80
2022-10-19T01:01:06.113Z,7.38
2022-10-19T01:03:35.274Z,6.97
2022-10-19T01:06:04.090Z,7.55
2022-10-19T01:08:32.305Z,8.68
2022-10-19T01:11:14.505Z,9.45
2022-10-19T01:13:52.981Z,8.05
2022-10-19T01:16:27.486Z,8.10
2022-10-19T01:19:00.729Z,8.60
2022-10-19T01:21:35.836Z,6.53
2022-10-19T01:24:41.829Z,7.63
2022-10-19T01:27:40.272Z,7.63
2022-10-19T01:30:14.792Z,7.18
2022-10-19T01:33:11.170Z,6.97
2022-10-19T01:35:46.284Z,6.38
2022-10-19T01:38:24.082Z,6.70
2022-10-19T01:40:58.596Z,6.40
2022-10-19T01:43:39.428Z,7.32
2022-10-19T01:46:14.533Z,6.40
2022-10-19T01:48:46.857Z,6.43
2022-10-19T01:51:19.521Z,7.22
2022-10-19T01:53:50.367Z,7.18
2022-10-19T01:56:22.050Z,7.30
2022-10-19T01:58:52.255Z,7.95
2022-10-19T02:01:25.397Z,9.52
2022-10-19T02:03:54.711Z,7.22
2022-10-19T02:06:23.332Z,7.13
2022-10-19T02:08:53.671Z,6.78
2022-10-19T02:11:23.389Z,7.40
2022-10-19T02:13:57.786Z,6.63
2022-10-19T02:16:31.678Z,6.22
2022-10-19T02:19:01.257Z,7.07
2022-10-19T02:21:29.806Z,7.03
2022-10-19T02:23:57.666Z,6.90
2022-10-19T02:26:25.475Z,7.07
2022-10-19T02:28:55.887Z,6.90
2022-10-19T02:31:24.426Z,6.55
2022-10-19T02:33:54.421Z,6.55
2022-10-19T02:36:22.955Z,6.85
2022-10-19T02:38:51.043Z,6.32
2022-10-19T02:41:23.349Z,6.90
2022-10-19T02:43:57.059Z,7.22
2022-10-19T02:46:31.025Z,7.25
2022-10-19T02:49:02.201Z,7.00
2022-10-19T02:51:32.586Z,7.10
2022-10-19T02:54:04.160Z,7.30
2022-10-19T02:56:33.756Z,6.80
2022-10-19T02:59:01.771Z,7.47
2022-10-19T03:01:29.748Z,7.25
2022-10-19T03:03:57.674Z,6.90
2022-10-19T03:06:26.899Z,6.68
2022-10-19T03:08:54.671Z,7.88
2022-10-19T03:11:22.551Z,9.02
2022-10-19T03:13:50.457Z,8.02
2022-10-19T03:16:18.656Z,8.18
2022-10-19T03:18:49.372Z,8.48
2022-10-19T03:21:17.466Z,7.88
2022-10-19T03:23:46.865Z,8.52
2022-10-19T03:26:16.414Z,9.00
2022-10-19T03:28:44.290Z,9.10
2022-10-19T03:31:12.147Z,9.48
2022-10-19T03:33:40.754Z,10.43
2022-10-19T03:36:22.584Z,8.70
2022-10-19T03:38:56.381Z,8.98
2022-10-19T03:41:26.761Z,8.48
2022-10-19T03:43:54.589Z,9.52
2022-10-19T03:46:22.996Z,9.30
2022-10-19T03:48:51.089Z,9.60
2022-10-19T03:51:20.878Z,9.60
2022-10-19T03:53:49.522Z,10.48
2022-10-19T03:56:21.826Z,9.80
2022-10-19T03:58:52.001Z,9.25
2022-10-19T04:01:21.883Z,9.40
2022-10-19T04:03:54.210Z,10.45
2022-10-19T04:06:25.258Z,9.65
2022-10-19T04:08:53.647Z,8.75
2022-10-19T04:11:24.887Z,9.77
2022-10-19T04:13:53.793Z,10.10
2022-10-19T04:16:24.104Z,9.23
2022-10-19T04:18:52.304Z,10.77
2022-10-19T04:21:22.843Z,9.63
2022-10-19T04:26:19.126Z,13.07
2022-10-19T04:28:48.473Z,11.02
2022-10-19T04:31:16.373Z,12.02
2022-10-19T04:33:44.272Z,11.38
2022-10-19T04:36:13.166Z,11.27
2022-10-19T04:38:42.006Z,10.73
2022-10-19T04:41:13.856Z,9.45
2022-10-19T04:43:42.171Z,10.38
2022-10-19T04:46:13.952Z,10.32
2022-10-19T04:48:42.239Z,9.40
2022-10-19T04:51:10.950Z,7.93
2022-10-19T04:53:41.124Z,8.27
2022-10-19T04:56:12.102Z,7.60
2022-10-19T04:58:39.971Z,7.38
2022-10-19T05:01:09.763Z,7.57
2022-10-19T05:03:39.281Z,9.18
2022-10-19T05:06:07.655Z,7.60
2022-10-19T05:08:36.260Z,8.10
2022-10-19T05:11:04.894Z,8.50
2022-10-19T05:13:33.524Z,8.23
2022-10-19T05:16:03.373Z,8.18
2022-10-19T05:18:31.253Z,8.02
2022-10-19T05:21:05.240Z,7.53
2022-10-19T05:26:08.412Z,7.70
2022-10-19T05:28:38.250Z,7.97
2022-10-19T05:31:07.697Z,8.07
2022-10-19T05:33:36.419Z,9.15
2022-10-19T05:36:18.573Z,8.88
2022-10-19T05:38:48.137Z,9.88
2022-10-19T05:41:16.801Z,10.37
2022-10-19T05:43:45.016Z,11.02
2022-10-19T05:46:14.720Z,10.35
2022-10-19T05:48:42.615Z,10.87
2022-10-19T05:51:13.387Z,10.70
2022-10-19T05:53:43.291Z,10.32
2022-10-19T05:56:15.730Z,9.82
2022-10-19T05:58:44.061Z,9.95
2022-10-19T06:01:12.727Z,10.55
2022-10-19T06:03:40.908Z,9.82
2022-10-19T06:06:09.893Z,9.40
2022-10-19T06:08:39.252Z,10.98
2022-10-19T06:11:10.490Z,9.95
2022-10-19T06:13:39.200Z,10.43
2022-10-19T06:16:08.404Z,9.20
2022-10-19T06:18:36.676Z,10.40
2022-10-19T06:21:07.611Z,9.52
2022-10-19T06:23:36.248Z,10.43
2022-10-19T06:26:06.185Z,9.40
2022-10-19T06:28:36.569Z,9.35
2022-10-19T06:31:07.159Z,8.35
2022-10-19T06:33:37.463Z,8.13
2022-10-19T06:36:09.598Z,8.38
2022-10-19T06:38:37.484Z,8.45
2022-10-19T06:41:05.542Z,7.55
2022-10-19T06:43:35.306Z,9.02
2022-10-19T06:46:05.362Z,8.88
2022-10-19T06:48:33.262Z,8.98
2022-10-19T06:51:06.201Z,10.77
2022-10-19T06:53:34.910Z,9.32
2022-10-19T06:56:04.826Z,9.32
2022-10-19T06:58:37.468Z,9.15
2022-10-19T07:01:07.634Z,9.10
2022-10-19T07:03:36.644Z,9.73
2022-10-19T07:06:06.659Z,9.65
2022-10-19T07:08:36.058Z,9.07
2022-10-19T07:11:07.136Z,7.50
2022-10-19T07:13:35.367Z,8.55
2022-10-19T07:16:06.846Z,7.82
2022-10-19T07:18:36.123Z,7.15
2022-10-19T07:21:06.576Z,6.15
2022-10-19T07:23:36.550Z,6.03
2022-10-19T07:26:06.611Z,6.32
2022-10-19T07:28:35.146Z,6.63
2022-10-19T07:31:08.576Z,5.85
2022-10-19T07:33:36.872Z,6.80
2022-10-19T07:36:07.411Z,6.53
2022-10-19T07:41:05.893Z,5.47
2022-10-19T07:46:03.186Z,5.43
2022-10-19T07:48:32.806Z,5.68
2022-10-19T07:51:02.402Z,5.75
2022-10-19T07:53:30.366Z,5.33
2022-10-19T07:56:04.694Z,5.28
2022-10-19T07:58:32.614Z,5.63
2022-10-19T08:01:01.734Z,5.80
2022-10-19T08:06:19.052Z,4.95
2022-10-19T08:08:47.553Z,4.57
2022-10-19T08:11:18.312Z,4.82
2022-10-19T08:13:46.537Z,5.32
2022-10-19T08:16:33.737Z,4.20
2022-10-19T08:19:04.016Z,4.05
2022-10-19T08:21:33.304Z,3.80
2022-10-19T08:24:01.473Z,3.83
2022-10-19T08:26:29.829Z,3.75
2022-10-19T08:29:01.020Z,3.17
2022-10-19T08:31:29.199Z,3.53
2022-10-19T08:33:57.428Z,2.90
2022-10-19T08:36:26.162Z,3.35
2022-10-19T08:38:55.334Z,3.50
2022-10-19T08:41:31.644Z,3.75
2022-10-19T08:44:15.725Z,3.95
2022-10-19T08:46:52.407Z,2.85
2022-10-19T08:49:24.280Z,3.78
2022-10-19T08:51:57.211Z,3.45
2022-10-19T08:54:33.757Z,4.40
2022-10-19T08:57:15.715Z,3.95
2022-10-19T08:59:50.735Z,3.53
2022-10-19T09:02:23.758Z,4.10
2022-10-19T09:04:58.766Z,4.30
2022-10-19T09:07:30.036Z,4.55
2022-10-19T09:10:03.700Z,4.20
2022-10-19T09:12:46.861Z,4.72
2022-10-19T09:15:18.836Z,4.82
2022-10-19T09:17:46.844Z,5.60
2022-10-19T09:20:18.391Z,4.68
2022-10-19T09:22:50.285Z,4.60
2022-10-19T09:25:22.666Z,6.03
2022-10-19T09:27:56.630Z,5.78
2022-10-19T09:30:25.248Z,5.10
2022-10-19T09:33:00.095Z,4.55
2022-10-19T09:35:32.876Z,3.90
2022-10-19T09:38:01.546Z,3.50
2022-10-19T09:40:32.692Z,4.50
2022-10-19T09:43:08.789Z,4.32
2022-10-19T09:45:41.778Z,3.60
2022-10-19T09:48:18.311Z,3.67
2022-10-19T09:50:51.482Z,3.65
2022-10-19T09:53:21.899Z,3.50
2022-10-19T10:01:39.934Z,3.60
2022-10-19T10:04:14.870Z,3.38
2022-10-19T10:06:44.787Z,3.92
2022-10-19T10:09:17.363Z,4.35
2022-10-19T10:11:51.143Z,3.90
2022-10-19T10:14:22.543Z,3.80
2022-10-19T10:16:56.366Z,4.32
2022-10-19T10:19:29.680Z,4.68
2022-10-19T10:21:59.311Z,4.72
2022-10-19T10:24:29.452Z,3.80
2022-10-19T10:27:00.574Z,5.28
2022-10-19T10:29:30.716Z,5.93
2022-10-19T10:32:04.282Z,4.93
2022-10-19T10:34:49.472Z,5.75
2022-10-19T10:37:21.189Z,5.88
2022-10-19T10:39:53.242Z,5.10
2022-10-19T10:42:29.461Z,4.70
2022-10-19T10:44:57.827Z,4.97
2022-10-19T10:47:27.517Z,4.43
2022-10-19T10:49:58.750Z,4.90
2022-10-19T10:52:29.060Z,5.70
2022-10-19T10:55:02.898Z,5.15
2022-10-19T10:57:36.159Z,4.55
2022-10-19T11:00:11.209Z,5.05
2022-10-19T11:02:47.330Z,4.88
2022-10-19T11:05:20.546Z,4.45
2022-10-19T11:07:53.003Z,5.35
2022-10-19T11:10:39.188Z,5.40
2022-10-19T11:17:04.712Z,4.88
2022-10-19T11:19:39.285Z,5.28
2022-10-19T11:36:33.937Z,6.10
2022-10-19T11:39:20.016Z,5.75
2022-10-19T11:41:55.920Z,6.50
2022-10-19T11:44:36.646Z,7.03
2022-10-19T11:47:31.287Z,7.72
2022-10-19T11:50:10.901Z,8.43
2022-10-19T11:52:49.580Z,7.77
2022-10-19T11:55:28.718Z,9.45
2022-10-19T11:58:06.514Z,8.32
2022-10-19T12:00:41.697Z,9.05
2022-10-19T12:03:29.807Z,8.57
2022-10-19T12:06:09.168Z,7.65
2022-10-19T12:08:53.784Z,7.88
2022-10-19T12:11:33.109Z,8.60
2022-10-19T12:14:04.799Z,8.38
2022-10-19T12:16:38.930Z,9.23
2022-10-19T12:19:13.407Z,8.77
2022-10-19T12:21:43.193Z,9.05
2022-10-19T12:24:17.046Z,8.95
2022-10-19T12:26:46.541Z,9.73
2022-10-19T12:29:18.807Z,10.87
2022-10-19T12:31:48.012Z,10.43
2022-10-19T12:34:27.849Z,12.23
2022-10-19T12:37:01.771Z,11.40
2022-10-19T12:39:39.245Z,12.30
2022-10-19T12:42:20.211Z,11.88
2022-10-19T12:45:25.301Z,10.73
2022-10-19T12:48:21.863Z,11.07
2022-10-19T12:51:05.144Z,10.57
2022-10-19T12:53:38.046Z,11.77
2022-10-19T12:56:11.842Z,12.23
2022-10-19T12:58:48.161Z,13.20
2022-10-19T13:01:20.996Z,11.68
2022-10-19T13:03:51.871Z,11.68
2022-10-19T13:06:31.915Z,11.70
2022-10-19T13:09:02.974Z,11.48
2022-10-19T13:11:32.612Z,12.73
2022-10-19T13:14:06.481Z,13.05
2022-10-19T13:17:06.757Z,11.23
2022-10-19T13:19:34.997Z,11.35
2022-10-19T13:22:29.768Z,12.80
2022-10-19T13:25:21.429Z,12.02
2022-10-19T13:27:51.814Z,11.80
2022-10-19T13:31:03.385Z,11.27
2022-10-19T13:33:55.961Z,11.20
2022-10-19T13:36:26.144Z,10.60
2022-10-19T13:39:13.772Z,11.95
2022-10-19T13:41:51.206Z,9.73
2022-10-19T13:44:25.156Z,10.38
2022-10-19T13:47:24.393Z,9.65
2022-10-19T13:50:14.615Z,11.27
2022-10-19T13:53:01.441Z,9.57
2022-10-19T13:55:52.632Z,9.50
2022-10-19T13:58:49.583Z,10.20
2022-10-19T14:01:30.983Z,10.05
2022-10-19T14:04:18.184Z,9.98
2022-10-19T14:06:53.315Z,10.32
2022-10-19T14:09:38.812Z,9.63
2022-10-19T14:12:13.064Z,9.45
2022-10-19T14:14:42.974Z,8.18
2022-10-19T14:17:20.809Z,9.07
2022-10-19T14:19:51.406Z,8.15
2022-10-19T14:22:27.382Z,9.20
2022-10-19T14:25:02.376Z,9.93
2022-10-19T14:27:31.692Z,8.93
2022-10-19T14:29:59.994Z,8.77
2022-10-19T14:32:30.622Z,9.32
2022-10-19T14:37:33.435Z,8.85
2022-10-19T14:40:04.250Z,8.10
2022-10-19T14:42:41.595Z,8.27
2022-10-19T14:45:28.648Z,9.13
2022-10-19T14:48:00.248Z,8.88
2022-10-19T14:50:39.844Z,9.57
2022-10-19T14:53:32.931Z,9.33
2022-10-19T14:56:05.030Z,7.43
2022-10-19T14:58:40.986Z,8.35
2022-10-19T15:01:10.828Z,8.15
2022-10-19T15:03:43.879Z,8.40
2022-10-19T15:06:19.884Z,8.25
2022-10-19T15:08:51.846Z,7.57
2022-10-19T15:11:26.660Z,8.82
2022-10-19T15:14:01.563Z,8.00
2022-10-19T15:16:32.216Z,8.15
2022-10-19T15:21:33.908Z,7.95
2022-10-19T15:24:10.201Z,7.50
2022-10-19T15:26:38.148Z,7.95
2022-10-19T15:29:12.752Z,8.63
2022-10-19T15:31:40.567Z,8.30
2022-10-19T15:34:24.720Z,8.10
2022-10-19T15:36:58.181Z,7.95
2022-10-19T15:39:38.922Z,8.93
2022-10-19T15:42:34.902Z,7.85
2022-10-19T15:45:03.100Z,8.20
2022-10-19T15:47:31.321Z,8.45
2022-10-19T15:50:02.593Z,8.68
2022-10-19T15:52:33.558Z,9.05
2022-10-19T15:55:02.400Z,9.55
2022-10-19T15:57:33.385Z,9.15
2022-10-19T16:00:07.808Z,9.43
2022-10-19T16:02:36.090Z,9.65
2022-10-19T16:07:39.282Z,10.63
2022-10-19T16:10:08.901Z,12.13
2022-10-19T16:12:36.892Z,12.47
2022-10-19T16:15:05.571Z,9.38
2022-10-19T16:17:34.504Z,12.05
2022-10-19T16:20:02.600Z,13.30
2022-10-19T16:22:32.422Z,10.73
2022-10-19T16:25:00.303Z,11.20
2022-10-19T16:27:28.334Z,10.77
2022-10-19T16:29:56.132Z,10.73
2022-10-19T16:32:24.110Z,12.07
2022-10-19T16:34:51.965Z,12.43
2022-10-19T16:37:19.782Z,12.55
2022-10-19T16:39:49.019Z,13.57
2022-10-19T16:42:17.010Z,11.27
2022-10-19T16:44:45.305Z,11.15
2022-10-19T16:47:13.869Z,10.80
2022-10-19T16:49:41.676Z,11.02
2022-10-19T16:52:13.862Z,10.55
2022-10-19T16:54:41.669Z,11.57
2022-10-19T16:57:10.977Z,12.30
2022-10-19T16:59:38.896Z,14.23
2022-10-19T17:02:11.069Z,14.38
2022-10-19T17:04:41.586Z,14.27
2022-10-19T17:07:09.467Z,13.52
2022-10-19T17:09:41.694Z,11.40
2022-10-19T17:12:12.436Z,14.10
2022-10-19T17:14:42.038Z,14.27
2022-10-19T17:17:11.611Z,13.63
2022-10-19T17:19:39.818Z,13.40
2022-10-19T17:22:07.654Z,13.85
2022-10-19T17:24:37.346Z,12.75
2022-10-19T17:27:05.262Z,13.27
2022-10-19T17:29:34.682Z,12.70
2022-10-19T17:32:02.710Z,12.80
2022-10-19T17:34:30.597Z,14.73
2022-10-19T17:36:59.606Z,15.50
2022-10-19T17:39:29.974Z,13.95
2022-10-19T17:42:01.682Z,13.77
2022-10-19T17:44:31.570Z,14.68
2022-10-19T17:47:01.881Z,12.57
2022-10-19T17:49:30.380Z,14.38
2022-10-19T17:51:58.413Z,11.75
2022-10-19T17:54:26.489Z,11.15
2022-10-19T17:56:54.447Z,15.13
2022-10-19T17:59:34.930Z,13.55
2022-10-19T18:02:07.487Z,14.55
2022-10-19T18:07:04.211Z,12.50
2022-10-19T18:09:32.509Z,12.82
2022-10-19T18:12:04.784Z,13.60
2022-10-19T18:14:35.291Z,9.07
2022-10-19T18:17:04.642Z,10.35
2022-10-19T18:19:33.206Z,10.03
2022-10-19T18:22:01.029Z,9.88
2022-10-19T18:24:29.232Z,13.68
2022-10-19T18:26:57.249Z,15.73
2022-10-19T18:29:27.057Z,18.15
2022-10-19T18:31:55.673Z,19.38
2022-10-19T18:34:26.576Z,14.77
2022-10-19T18:36:55.425Z,15.13
2022-10-19T18:39:23.967Z,14.55
2022-10-19T18:41:55.136Z,13.45
2022-10-19T18:44:27.129Z,11.15
2022-10-19T18:46:56.715Z,9.10
2022-10-19T18:49:26.321Z,9.20
2022-10-19T18:51:55.870Z,9.00
2022-10-19T18:54:26.168Z,9.02
2022-10-19T18:56:54.415Z,8.95
2022-10-19T18:59:22.336Z,8.82
2022-10-19T19:01:50.465Z,9.07
2022-10-19T19:04:18.432Z,8.43
2022-10-19T19:06:47.707Z,8.13
2022-10-19T19:09:17.329Z,8.90
2022-10-19T19:11:45.268Z,8.80
2022-10-19T19:14:14.952Z,9.05
2022-10-19T19:16:45.028Z,9.18
2022-10-19T19:19:14.652Z,9.75
2022-10-19T19:21:44.426Z,8.27
2022-10-19T19:24:17.085Z,8.30
2022-10-19T19:26:48.408Z,7.88
2022-10-19T19:29:16.832Z,7.43
2022-10-19T19:31:44.707Z,7.50
2022-10-19T19:34:13.001Z,7.32
2022-10-19T19:36:46.911Z,7.70
2022-10-19T19:39:18.653Z,7.32
2022-10-19T19:41:47.567Z,7.72
2022-10-19T19:44:15.419Z,7.55
2022-10-19T19:46:43.559Z,7.55
2022-10-19T19:49:11.926Z,6.93
2022-10-19T19:51:39.937Z,7.75
2022-10-19T19:54:07.892Z,7.88
2022-10-19T19:56:37.535Z,6.88
2022-10-19T19:59:05.565Z,6.70
2022-10-19T20:01:33.948Z,6.63
2022-10-19T20:06:36.648Z,7.13
2022-10-19T20:09:05.342Z,7.45
2022-10-19T20:11:34.537Z,7.20
2022-10-19T20:14:05.397Z,6.65
2022-10-19T20:16:33.651Z,6.90
2022-10-19T20:19:05.304Z,6.78
2022-10-19T20:21:33.711Z,7.43
2022-10-19T20:24:02.320Z,6.88
2022-10-19T20:26:30.544Z,6.10
2022-10-19T20:28:58.998Z,6.60
2022-10-19T20:34:00.956Z,6.95
2022-10-19T20:36:28.967Z,6.13
2022-10-19T20:38:58.730Z,6.47
2022-10-19T20:41:28.363Z,6.38
2022-10-19T20:43:57.390Z,6.83
2022-10-19T20:46:27.353Z,5.82
2022-10-19T20:48:59.572Z,6.10
2022-10-19T20:51:32.021Z,5.90
2022-10-19T20:54:01.556Z,6.28
2022-10-19T20:56:30.951Z,6.32
2022-10-19T20:59:00.757Z,6.90
2022-10-19T21:01:29.921Z,7.05
2022-10-19T21:04:03.226Z,6.57
2022-10-19T21:06:32.857Z,6.75
2022-10-19T21:09:01.525Z,6.22
2022-10-19T21:11:32.097Z,6.30
2022-10-19T21:16:30.259Z,5.97
2022-10-19T21:19:00.648Z,6.70
2022-10-19T21:21:31.951Z,6.32
2022-10-19T21:24:04.025Z,6.93
2022-10-19T21:26:34.352Z,6.95
2022-10-19T21:29:03.525Z,7.22
2022-10-19T21:31:31.572Z,7.03
2022-10-19T21:34:04.473Z,7.72
2022-10-19T21:36:32.309Z,6.43
2022-10-19T21:39:00.159Z,6.05
2022-10-19T21:41:28.052Z,7.07
2022-10-19T21:43:55.818Z,6.10
2022-10-19T21:46:24.768Z,5.95
2022-10-19T21:48:53.714Z,6.00
2022-10-19T21:51:35.906Z,6.32
2022-10-19T21:54:04.602Z,6.15
2022-10-19T21:56:33.115Z,6.13
2022-10-19T21:59:01.489Z,5.82
2022-10-19T22:01:37.124Z,6.78
2022-10-19T22:04:09.953Z,6.35
2022-10-19T22:06:39.214Z,6.93
2022-10-19T22:09:08.716Z,5.82
2022-10-19T22:11:36.946Z,5.97
2022-10-19T22:14:05.878Z,6.30
2022-10-19T22:16:36.847Z,6.03
2022-10-19T22:19:05.967Z,5.57
2022-10-19T22:21:35.580Z,5.85
2022-10-19T22:24:06.919Z,5.70
2022-10-19T22:26:38.348Z,6.03
2022-10-19T22:29:07.454Z,6.00
2022-10-19T22:31:36.413Z,6.03
2022-10-19T22:34:06.897Z,7.10
2022-10-19T22:39:04.238Z,7.00
2022-10-19T22:41:32.130Z,6.67
2022-10-19T22:43:59.938Z,6.18
2022-10-19T22:46:27.765Z,7.47
2022-10-19T22:48:55.729Z,6.50
2022-10-19T22:51:23.783Z,6.13
2022-10-19T22:53:51.592Z,6.40
2022-10-19T22:56:20.884Z,6.95
2022-10-19T22:58:48.709Z,6.68
2022-10-19T23:01:17.386Z,6.38
2022-10-19T23:03:45.335Z,7.00
2022-10-19T23:06:15.313Z,6.43
2022-10-19T23:08:44.015Z,6.72
2022-10-19T23:11:13.474Z,6.15
2022-10-19T23:13:42.996Z,7.57
2022-10-19T23:16:11.219Z,6.25
2022-10-19T23:18:41.145Z,7.00
2022-10-19T23:21:11.588Z,7.20
2022-10-19T23:23:39.514Z,7.63
2022-10-19T23:26:09.981Z,7.60
2022-10-19T23:31:09.502Z,7.00
2022-10-19T23:33:37.734Z,7.93
2022-10-19T23:36:07.623Z,8.48
2022-10-19T23:38:35.805Z,8.88
2022-10-19T23:41:03.760Z,8.85
2022-10-19T23:43:31.747Z,8.82
2022-10-19T23:45:59.895Z,8.65
2022-10-19T23:48:29.929Z,7.75
2022-10-19T23:50:59.684Z,8.75
2022-10-19T23:53:28.548Z,8.77
2022-10-19T23:55:59.696Z,8.70
2022-10-19T23:58:27.913Z,8.52
